createdAt,value
2023-05-20T00:00:00.745Z,0.00
2023-05-20T00:01:00.745Z,0.00
2023-05-20T00:02:00.753Z,0.00
2023-05-20T00:03:00.821Z,0.00
2023-05-20T00:04:00.957Z,0.00
2023-05-20T00:05:00.801Z,0.00
2023-05-20T00:06:00.682Z,0.00
2023-05-20T00:07:00.693Z,0.00
2023-05-20T00:08:00.680Z,0.00
2023-05-20T00:09:00.693Z,0.00
2023-05-20T00:10:00.649Z,0.00
2023-05-20T00:11:00.650Z,0.00
2023-05-20T00:12:00.658Z,0.00
2023-05-20T00:13:00.601Z,0.00
2023-05-20T00:14:00.606Z,0.00
2023-05-20T00:15:00.581Z,0.00
2023-05-20T00:16:00.594Z,0.00
2023-05-20T00:17:00.612Z,0.00
2023-05-20T00:18:00.597Z,0.00
2023-05-20T00:19:00.580Z,0.00
2023-05-20T00:20:00.535Z,0.00
2023-05-20T00:21:00.520Z,0.00
2023-05-20T00:22:00.530Z,0.00
2023-05-20T00:23:00.513Z,0.00
2023-05-20T00:24:00.491Z,0.00
2023-05-20T00:25:00.476Z,0.00
2023-05-20T00:26:01.031Z,0.00
2023-05-20T00:27:00.475Z,0.00
2023-05-20T00:28:00.442Z,0.00
2023-05-20T00:29:00.428Z,0.00
2023-05-20T00:30:00.421Z,0.00
2023-05-20T00:31:00.410Z,0.00
2023-05-20T00:32:00.399Z,0.00
2023-05-20T00:33:00.482Z,0.00
2023-05-20T00:34:00.400Z,0.00
2023-05-20T00:35:00.365Z,0.00
2023-05-20T00:36:00.354Z,0.00
2023-05-20T00:37:00.349Z,0.00
2023-05-20T00:38:00.373Z,0.00
2023-05-20T00:39:00.317Z,0.00
2023-05-20T00:40:00.317Z,0.00
2023-05-20T00:41:00.324Z,0.00
2023-05-20T00:42:00.284Z,0.00
2023-05-20T00:43:00.303Z,0.00
2023-05-20T00:44:00.263Z,0.00
2023-05-20T00:45:00.265Z,0.00
2023-05-20T00:46:00.282Z,0.00
2023-05-20T00:47:00.230Z,0.00
2023-05-20T00:48:00.269Z,0.00
2023-05-20T00:49:00.235Z,0.00
2023-05-20T00:50:00.233Z,0.00
2023-05-20T00:51:00.189Z,0.00
2023-05-20T00:52:00.173Z,0.00
2023-05-20T00:53:00.206Z,0.00
2023-05-20T00:54:00.167Z,0.00
2023-05-20T00:55:00.162Z,0.00
2023-05-20T00:56:00.145Z,0.00
2023-05-20T00:57:00.124Z,0.00
2023-05-20T00:58:00.126Z,0.00
2023-05-20T00:59:00.134Z,0.00
2023-05-20T01:00:00.124Z,0.00
2023-05-20T01:01:00.190Z,0.00
2023-05-20T01:02:00.078Z,0.00
2023-05-20T01:03:00.165Z,0.00
2023-05-20T01:04:00.075Z,0.00
2023-05-20T01:05:00.034Z,0.00
2023-05-20T01:06:00.047Z,0.00
2023-05-20T01:07:00.011Z,0.00
2023-05-20T01:08:00.005Z,0.00
2023-05-20T01:09:00.026Z,0.00
2023-05-20T01:10:00.000Z,0.00
2023-05-20T01:10:59.966Z,0.00
2023-05-20T01:11:59.965Z,0.00
2023-05-20T01:12:59.941Z,0.00
2023-05-20T01:13:59.940Z,0.00
2023-05-20T01:14:59.961Z,0.00
2023-05-20T01:15:59.965Z,0.00
2023-05-20T01:16:59.921Z,0.00
2023-05-20T01:17:59.941Z,0.00
2023-05-20T01:18:59.897Z,0.00
2023-05-20T01:19:59.881Z,0.00
2023-05-20T01:20:59.882Z,0.00
2023-05-20T01:21:59.847Z,0.00
2023-05-20T01:22:59.876Z,0.00
2023-05-20T01:23:59.826Z,0.00
2023-05-20T01:24:59.833Z,0.00
2023-05-20T01:25:59.819Z,0.00
2023-05-20T01:26:59.791Z,0.00
2023-05-20T01:27:59.805Z,0.00
2023-05-20T01:28:59.778Z,0.00
2023-05-20T01:29:59.776Z,0.00
2023-05-20T01:30:59.781Z,0.00
2023-05-20T01:31:59.752Z,0.00
2023-05-20T01:32:59.728Z,0.00
2023-05-20T01:33:59.736Z,0.00
2023-05-20T01:34:59.704Z,0.00
2023-05-20T01:35:59.700Z,0.00
2023-05-20T01:36:59.683Z,0.00
2023-05-20T01:37:59.676Z,0.00
2023-05-20T01:38:59.694Z,0.00
2023-05-20T01:39:59.651Z,0.00
2023-05-20T01:40:59.645Z,0.00
2023-05-20T01:41:59.633Z,0.00
2023-05-20T01:42:59.614Z,0.00
2023-05-20T01:43:59.644Z,0.00
2023-05-20T01:44:59.606Z,0.00
2023-05-20T01:45:59.633Z,0.00
2023-05-20T01:46:59.606Z,0.00
2023-05-20T01:47:59.621Z,0.00
2023-05-20T01:48:59.555Z,0.00
2023-05-20T01:49:59.541Z,0.00
2023-05-20T01:50:59.543Z,0.00
2023-05-20T01:51:59.543Z,0.00
2023-05-20T01:52:59.513Z,0.00
2023-05-20T01:53:59.498Z,0.00
2023-05-20T01:54:59.506Z,0.00
2023-05-20T01:55:59.512Z,0.00
2023-05-20T01:56:59.470Z,0.00
2023-05-20T01:57:59.452Z,0.00
2023-05-20T01:58:59.455Z,0.00
2023-05-20T01:59:59.435Z,0.00
2023-05-20T02:00:59.449Z,0.00
2023-05-20T02:01:59.464Z,0.00
2023-05-20T02:02:59.430Z,0.00
2023-05-20T02:03:59.391Z,0.00
2023-05-20T02:04:59.376Z,0.00
2023-05-20T02:05:59.439Z,0.00
2023-05-20T02:06:59.394Z,0.00
2023-05-20T02:07:59.345Z,0.00
2023-05-20T02:08:59.334Z,0.00
2023-05-20T02:09:59.352Z,0.00
2023-05-20T02:10:59.320Z,0.00
2023-05-20T02:11:59.310Z,0.00
2023-05-20T02:12:59.331Z,0.00
2023-05-20T02:13:59.285Z,0.00
2023-05-20T02:14:59.284Z,0.00
2023-05-20T02:15:59.327Z,0.00
2023-05-20T02:16:59.337Z,0.00
2023-05-20T02:17:59.296Z,0.00
2023-05-20T02:18:59.262Z,0.00
2023-05-20T02:19:59.219Z,0.00
2023-05-20T02:20:59.213Z,0.00
2023-05-20T02:21:59.198Z,0.00
2023-05-20T02:22:59.212Z,0.00
2023-05-20T02:23:59.204Z,0.00
2023-05-20T02:24:59.187Z,0.00
2023-05-20T02:25:59.160Z,0.00
2023-05-20T02:26:59.155Z,0.00
2023-05-20T02:27:59.236Z,0.00
2023-05-20T02:28:59.242Z,0.00
2023-05-20T02:29:59.117Z,0.00
2023-05-20T02:30:59.117Z,0.00
2023-05-20T02:31:59.089Z,0.00
2023-05-20T02:32:59.206Z,0.00
2023-05-20T02:33:59.154Z,0.00
2023-05-20T02:34:59.091Z,0.00
2023-05-20T02:35:59.056Z,0.00
2023-05-20T02:36:59.034Z,0.00
2023-05-20T02:37:59.026Z,0.00
2023-05-20T02:38:59.022Z,0.00
2023-05-20T02:39:59.036Z,0.00
2023-05-20T02:40:59.001Z,0.00
2023-05-20T02:41:58.984Z,0.00
2023-05-20T02:42:58.983Z,0.00
2023-05-20T02:43:58.954Z,0.00
2023-05-20T02:44:58.965Z,0.00
2023-05-20T02:45:58.983Z,0.00
2023-05-20T02:46:58.945Z,0.00
2023-05-20T02:47:58.969Z,0.00
2023-05-20T02:48:58.917Z,0.00
2023-05-20T02:49:58.894Z,0.00
2023-05-20T02:50:58.886Z,0.00
2023-05-20T02:51:58.895Z,0.00
2023-05-20T02:52:58.865Z,0.00
2023-05-20T02:53:58.858Z,0.00
2023-05-20T02:54:58.859Z,0.00
2023-05-20T02:55:58.827Z,0.00
2023-05-20T02:56:58.820Z,0.00
2023-05-20T02:57:58.850Z,0.00
2023-05-20T02:58:58.793Z,0.00
2023-05-20T02:59:58.785Z,0.00
2023-05-20T03:00:58.839Z,0.00
2023-05-20T03:01:58.845Z,0.00
2023-05-20T03:02:58.834Z,0.00
2023-05-20T03:03:58.761Z,0.00
2023-05-20T03:04:58.741Z,0.00
2023-05-20T03:05:58.733Z,0.00
2023-05-20T03:06:58.716Z,0.00
2023-05-20T03:07:58.719Z,0.00
2023-05-20T03:08:58.692Z,0.00
2023-05-20T03:09:58.675Z,0.00
2023-05-20T03:10:58.670Z,0.00
2023-05-20T03:11:58.692Z,0.00
2023-05-20T03:12:58.664Z,0.00
2023-05-20T03:13:58.636Z,0.00
2023-05-20T03:14:58.661Z,0.00
2023-05-20T03:15:58.752Z,0.00
2023-05-20T03:16:58.595Z,0.00
2023-05-20T03:17:58.663Z,0.00
2023-05-20T03:18:58.626Z,0.00
2023-05-20T03:19:58.571Z,0.00
2023-05-20T03:20:58.561Z,0.00
2023-05-20T03:21:58.550Z,0.00
2023-05-20T03:22:58.540Z,5.62
2023-05-20T03:23:58.541Z,5.62
2023-05-20T03:26:26.318Z,5.62
2023-05-20T03:26:31.707Z,5.62
2023-05-20T03:27:31.701Z,5.62
2023-05-20T03:28:31.722Z,5.62
2023-05-20T03:29:31.696Z,5.62
2023-05-20T03:30:31.662Z,11.25
2023-05-20T03:31:31.691Z,11.25
2023-05-20T03:32:31.679Z,11.25
2023-05-20T03:33:31.629Z,11.25
2023-05-20T03:34:31.634Z,11.25
2023-05-20T03:35:31.825Z,11.25
2023-05-20T03:36:31.601Z,11.25
2023-05-20T03:37:31.589Z,16.88
2023-05-20T03:38:32.297Z,16.88
2023-05-20T03:39:31.589Z,16.88
2023-05-20T03:40:31.586Z,16.88
2023-05-20T03:41:31.553Z,22.50
2023-05-20T03:42:31.529Z,22.50
2023-05-20T03:43:31.553Z,22.50
2023-05-20T03:44:31.748Z,22.50
2023-05-20T03:45:31.509Z,28.12
2023-05-20T03:46:31.538Z,28.12
2023-05-20T03:47:31.487Z,28.12
2023-05-20T03:48:31.630Z,28.12
2023-05-20T03:49:31.451Z,33.75
2023-05-20T03:50:31.510Z,33.75
2023-05-20T03:51:31.511Z,39.38
2023-05-20T03:52:31.536Z,39.38
2023-05-20T03:53:31.457Z,39.38
2023-05-20T03:54:31.493Z,45.00
2023-05-20T03:55:31.631Z,45.00
2023-05-20T03:56:31.558Z,50.62
2023-05-20T03:57:31.361Z,50.62
2023-05-20T03:58:31.485Z,56.25
2023-05-20T03:59:31.424Z,56.25
2023-05-20T04:00:31.346Z,61.88
2023-05-20T04:01:31.417Z,61.88
2023-05-20T04:02:31.560Z,67.50
2023-05-20T04:03:31.405Z,67.50
2023-05-20T04:04:31.293Z,67.50
2023-05-20T04:05:31.312Z,73.12
2023-05-20T04:06:31.296Z,73.12
2023-05-20T04:07:31.265Z,78.75
2023-05-20T04:08:31.272Z,78.75
2023-05-20T04:09:31.237Z,84.38
2023-05-20T04:10:31.356Z,90.00
2023-05-20T04:11:31.244Z,90.00
2023-05-20T04:12:31.274Z,95.62
2023-05-20T04:13:31.203Z,95.62
2023-05-20T04:14:32.609Z,95.62
2023-05-20T04:15:31.212Z,101.25
2023-05-20T04:16:31.324Z,101.25
2023-05-20T04:17:31.193Z,106.88
2023-05-20T04:18:31.209Z,106.88
2023-05-20T04:19:31.200Z,112.50
2023-05-20T04:20:31.149Z,112.50
2023-05-20T04:21:31.136Z,118.12
2023-05-20T04:22:31.107Z,123.75
2023-05-20T04:23:31.115Z,123.75
2023-05-20T04:24:31.081Z,129.38
2023-05-20T04:25:31.064Z,135.00
2023-05-20T04:26:31.074Z,135.00
2023-05-20T04:27:31.092Z,140.62
2023-05-20T04:28:31.151Z,146.25
2023-05-20T04:29:31.021Z,146.25
2023-05-20T04:30:31.039Z,151.88
2023-05-20T04:31:31.059Z,157.50
2023-05-20T04:32:31.081Z,157.50
2023-05-20T04:33:31.151Z,163.12
2023-05-20T04:34:30.964Z,163.12
2023-05-20T04:35:31.105Z,168.75
2023-05-20T04:36:30.970Z,174.38
2023-05-20T04:37:30.993Z,174.38
2023-05-20T04:38:30.972Z,180.00
2023-05-20T04:39:31.018Z,180.00
2023-05-20T04:40:37.982Z,185.62
2023-05-20T04:41:31.729Z,191.25
2023-05-20T04:42:31.574Z,191.25
2023-05-20T04:43:30.902Z,191.25
2023-05-20T04:44:30.873Z,191.25
2023-05-20T04:45:31.021Z,196.88
2023-05-20T04:46:31.171Z,196.88
2023-05-20T04:47:30.879Z,196.88
2023-05-20T04:48:31.042Z,196.88
2023-05-20T04:49:30.841Z,202.50
2023-05-20T04:50:30.815Z,202.50
2023-05-20T04:51:30.868Z,202.50
2023-05-20T04:52:30.778Z,202.50
2023-05-20T04:53:30.756Z,202.50
2023-05-20T04:54:30.751Z,202.50
2023-05-20T04:55:30.821Z,202.50
2023-05-20T04:56:30.753Z,202.50
2023-05-20T04:57:30.734Z,202.50
2023-05-20T04:58:30.712Z,202.50
2023-05-20T04:59:30.805Z,202.50
2023-05-20T05:00:30.693Z,202.50
2023-05-20T05:01:30.721Z,202.50
2023-05-20T05:02:30.782Z,196.88
2023-05-20T05:03:31.357Z,196.88
2023-05-20T05:04:30.673Z,196.88
2023-05-20T05:05:30.751Z,196.88
2023-05-20T05:06:30.722Z,191.25
2023-05-20T05:07:30.693Z,191.25
2023-05-20T05:08:30.613Z,191.25
2023-05-20T05:09:30.906Z,191.25
2023-05-20T05:10:30.648Z,191.25
2023-05-20T05:11:30.796Z,185.62
2023-05-20T05:12:30.558Z,185.62
2023-05-20T05:13:30.543Z,185.62
2023-05-20T05:14:30.740Z,185.62
2023-05-20T05:15:30.540Z,185.62
2023-05-20T05:16:30.841Z,185.62
2023-05-20T05:17:30.552Z,185.62
2023-05-20T05:18:30.585Z,185.62
2023-05-20T05:19:30.541Z,185.62
2023-05-20T05:20:30.495Z,185.62
2023-05-20T05:21:30.470Z,185.62
2023-05-20T05:22:30.489Z,185.62
2023-05-20T05:23:30.494Z,185.62
2023-05-20T05:24:30.472Z,185.62
2023-05-20T05:25:30.493Z,185.62
2023-05-20T05:26:30.427Z,185.62
2023-05-20T05:27:30.431Z,185.62
2023-05-20T05:28:30.456Z,185.62
2023-05-20T05:29:30.466Z,185.62
2023-05-20T05:30:30.374Z,185.62
2023-05-20T05:31:30.388Z,185.62
2023-05-20T05:32:30.528Z,185.62
2023-05-20T05:33:30.493Z,185.62
2023-05-20T05:34:30.424Z,185.62
2023-05-20T05:35:30.322Z,185.62
2023-05-20T05:36:30.514Z,185.62
2023-05-20T05:37:30.379Z,191.25
2023-05-20T05:38:30.330Z,191.25
2023-05-20T05:39:30.342Z,191.25
2023-05-20T05:40:30.323Z,191.25
2023-05-20T05:41:30.340Z,191.25
2023-05-20T05:42:30.302Z,191.25
2023-05-20T05:43:30.269Z,191.25
2023-05-20T05:44:30.207Z,185.62
2023-05-20T05:45:30.194Z,185.62
2023-05-20T05:46:30.308Z,185.62
2023-05-20T05:47:30.210Z,185.62
2023-05-20T05:48:30.193Z,185.62
2023-05-20T05:49:30.285Z,185.62
2023-05-20T05:50:30.170Z,185.62
2023-05-20T05:51:30.146Z,185.62
2023-05-20T05:52:30.258Z,185.62
2023-05-20T05:53:30.244Z,185.62
2023-05-20T05:54:30.108Z,185.62
2023-05-20T05:55:30.168Z,185.62
2023-05-20T05:56:30.095Z,185.62
2023-05-20T05:57:30.137Z,185.62
2023-05-20T05:58:30.090Z,185.62
2023-05-20T05:59:30.335Z,180.00
2023-05-20T06:00:30.167Z,185.62
2023-05-20T06:01:30.176Z,185.62
2023-05-20T06:02:30.136Z,185.62
2023-05-20T06:03:30.207Z,185.62
2023-05-20T06:04:30.079Z,180.00
2023-05-20T06:05:30.105Z,180.00
2023-05-20T06:06:30.084Z,180.00
2023-05-20T06:07:30.027Z,180.00
2023-05-20T06:08:29.995Z,185.62
2023-05-20T06:09:29.965Z,185.62
2023-05-20T06:10:29.960Z,185.62
2023-05-20T06:11:29.947Z,185.62
2023-05-20T06:12:29.908Z,185.62
2023-05-20T06:13:29.888Z,185.62
2023-05-20T06:14:29.872Z,185.62
2023-05-20T06:15:29.967Z,185.62
2023-05-20T06:16:29.873Z,185.62
2023-05-20T06:17:29.866Z,185.62
2023-05-20T06:18:29.829Z,185.62
2023-05-20T06:19:29.963Z,185.62
2023-05-20T06:20:29.808Z,185.62
2023-05-20T06:21:29.831Z,185.62
2023-05-20T06:22:29.809Z,185.62
2023-05-20T06:23:29.791Z,185.62
2023-05-20T06:24:29.766Z,185.62
2023-05-20T06:25:29.780Z,191.25
2023-05-20T06:26:29.827Z,191.25
2023-05-20T06:27:29.930Z,191.25
2023-05-20T06:28:29.730Z,191.25
2023-05-20T06:29:29.972Z,191.25
2023-05-20T06:30:29.702Z,191.25
2023-05-20T06:31:29.811Z,191.25
2023-05-20T06:32:29.709Z,191.25
2023-05-20T06:33:29.676Z,191.25
2023-05-20T06:34:29.693Z,191.25
2023-05-20T06:35:29.699Z,191.25
2023-05-20T06:36:30.695Z,191.25
2023-05-20T06:37:29.690Z,191.25
2023-05-20T06:38:29.633Z,191.25
2023-05-20T06:39:29.660Z,196.88
2023-05-20T06:40:29.654Z,196.88
2023-05-20T06:41:29.601Z,196.88
2023-05-20T06:42:29.570Z,196.88
2023-05-20T06:43:29.580Z,196.88
2023-05-20T06:44:29.547Z,196.88
2023-05-20T06:45:29.549Z,196.88
2023-05-20T06:46:29.596Z,196.88
2023-05-20T06:47:29.528Z,196.88
2023-05-20T06:48:29.520Z,196.88
2023-05-20T06:49:29.511Z,196.88
2023-05-20T06:50:29.490Z,196.88
2023-05-20T06:51:29.507Z,196.88
2023-05-20T06:52:29.507Z,202.50
2023-05-20T06:53:29.511Z,202.50
2023-05-20T06:54:29.436Z,202.50
2023-05-20T06:55:29.433Z,202.50
2023-05-20T06:56:29.434Z,202.50
2023-05-20T06:57:29.410Z,202.50
2023-05-20T06:58:29.420Z,208.12
2023-05-20T06:59:29.377Z,208.12
2023-05-20T07:00:29.369Z,208.12
2023-05-20T07:01:29.405Z,208.12
2023-05-20T07:02:29.371Z,208.12
2023-05-20T07:03:29.383Z,208.12
2023-05-20T07:04:29.347Z,208.12
2023-05-20T07:05:29.326Z,208.12
2023-05-20T07:06:29.306Z,208.12
2023-05-20T07:07:29.307Z,208.12
2023-05-20T07:08:29.276Z,213.75
2023-05-20T07:09:29.297Z,213.75
2023-05-20T07:10:29.274Z,213.75
2023-05-20T07:11:29.255Z,219.38
2023-05-20T07:12:29.229Z,219.38
2023-05-20T07:13:29.275Z,219.38
2023-05-20T07:14:29.215Z,219.38
2023-05-20T07:15:29.234Z,219.38
2023-05-20T07:16:29.283Z,225.00
2023-05-20T07:17:29.210Z,213.75
2023-05-20T07:18:29.173Z,225.00
2023-05-20T07:19:29.292Z,230.62
2023-05-20T07:20:29.193Z,236.25
2023-05-20T07:21:29.144Z,241.88
2023-05-20T07:22:29.124Z,236.25
2023-05-20T07:23:29.124Z,241.88
2023-05-20T07:24:29.101Z,253.12
2023-05-20T07:25:29.093Z,275.62
2023-05-20T07:26:29.107Z,315.00
2023-05-20T07:27:29.069Z,360.00
2023-05-20T07:28:29.080Z,416.25
2023-05-20T07:29:29.053Z,461.25
2023-05-20T07:30:29.040Z,506.25
2023-05-20T07:31:29.096Z,540.00
2023-05-20T07:32:29.046Z,556.88
2023-05-20T07:33:29.056Z,573.75
2023-05-20T07:34:29.046Z,585.00
2023-05-20T07:35:28.985Z,590.62
2023-05-20T07:36:28.971Z,596.25
2023-05-20T07:37:28.965Z,601.88
2023-05-20T07:38:28.948Z,613.12
2023-05-20T07:39:28.943Z,613.12
2023-05-20T07:40:28.956Z,607.50
2023-05-20T07:41:28.932Z,607.50
2023-05-20T07:42:28.905Z,601.88
2023-05-20T07:43:28.895Z,601.88
2023-05-20T07:44:28.925Z,607.50
2023-05-20T07:45:28.886Z,613.12
2023-05-20T07:46:28.896Z,618.75
2023-05-20T07:47:28.929Z,618.75
2023-05-20T07:48:28.846Z,618.75
2023-05-20T07:49:28.857Z,613.12
2023-05-20T07:50:28.830Z,607.50
2023-05-20T07:51:28.858Z,596.25
2023-05-20T07:52:28.804Z,590.62
2023-05-20T07:53:28.805Z,590.62
2023-05-20T07:54:28.804Z,585.00
2023-05-20T07:55:28.794Z,590.62
2023-05-20T07:56:28.775Z,596.25
2023-05-20T07:57:28.777Z,596.25
2023-05-20T07:58:28.925Z,596.25
2023-05-20T07:59:28.752Z,596.25
2023-05-20T08:00:28.719Z,596.25
2023-05-20T08:01:28.703Z,601.88
2023-05-20T08:02:28.778Z,596.25
2023-05-20T08:03:28.792Z,596.25
2023-05-20T08:04:28.727Z,601.88
2023-05-20T08:05:28.682Z,607.50
2023-05-20T08:06:29.889Z,613.12
2023-05-20T08:07:28.641Z,624.38
2023-05-20T08:08:28.619Z,630.00
2023-05-20T08:09:28.643Z,641.25
2023-05-20T08:10:28.599Z,641.25
2023-05-20T08:11:28.616Z,646.88
2023-05-20T08:12:28.592Z,663.75
2023-05-20T08:13:28.573Z,669.38
2023-05-20T08:14:28.608Z,686.25
2023-05-20T08:15:28.549Z,691.88
2023-05-20T08:16:28.549Z,691.88
2023-05-20T08:17:28.557Z,703.12
2023-05-20T08:18:28.536Z,714.38
2023-05-20T08:19:28.645Z,725.62
2023-05-20T08:20:28.489Z,748.12
2023-05-20T08:21:28.478Z,765.00
2023-05-20T08:22:28.474Z,804.38
2023-05-20T08:23:28.466Z,843.75
2023-05-20T08:24:28.448Z,860.62
2023-05-20T08:25:28.473Z,883.12
2023-05-20T08:26:28.423Z,905.62
2023-05-20T08:27:28.415Z,905.62
2023-05-20T08:28:28.411Z,911.25
2023-05-20T08:29:28.398Z,916.88
2023-05-20T08:30:28.407Z,916.88
2023-05-20T08:31:28.481Z,905.62
2023-05-20T08:32:28.380Z,888.75
2023-05-20T08:33:28.352Z,900.00
2023-05-20T08:34:28.345Z,900.00
2023-05-20T08:35:28.372Z,900.00
2023-05-20T08:36:28.312Z,911.25
2023-05-20T08:37:28.305Z,922.50
2023-05-20T08:38:28.307Z,933.75
2023-05-20T08:39:28.286Z,945.00
2023-05-20T08:40:28.280Z,945.00
2023-05-20T08:41:28.279Z,933.75
2023-05-20T08:42:28.275Z,939.38
2023-05-20T08:43:28.242Z,939.38
2023-05-20T08:44:28.226Z,945.00
2023-05-20T08:45:28.271Z,961.88
2023-05-20T08:46:28.262Z,967.50
2023-05-20T08:47:28.221Z,939.38
2023-05-20T08:48:28.193Z,911.25
2023-05-20T08:49:28.188Z,883.12
2023-05-20T08:50:28.191Z,843.75
2023-05-20T08:51:28.161Z,815.62
2023-05-20T08:52:28.147Z,815.62
2023-05-20T08:53:28.158Z,815.62
2023-05-20T08:54:28.123Z,798.75
2023-05-20T08:55:28.119Z,787.50
2023-05-20T08:56:30.666Z,804.38
2023-05-20T08:57:28.095Z,838.12
2023-05-20T08:58:28.947Z,866.25
2023-05-20T08:59:28.080Z,877.50
2023-05-20T09:00:28.083Z,888.75
2023-05-20T09:01:28.088Z,922.50
2023-05-20T09:02:28.043Z,945.00
2023-05-20T09:03:28.036Z,950.62
2023-05-20T09:04:28.045Z,961.88
2023-05-20T09:05:28.046Z,984.38
2023-05-20T09:06:27.995Z,1001.25
2023-05-20T09:07:28.004Z,1001.25
2023-05-20T09:08:27.988Z,1018.12
2023-05-20T09:09:27.970Z,1046.25
2023-05-20T09:10:27.962Z,1096.88
2023-05-20T09:11:27.965Z,1130.62
2023-05-20T09:12:27.955Z,1119.38
2023-05-20T09:13:27.929Z,1096.88
2023-05-20T09:14:27.909Z,1085.62
2023-05-20T09:15:27.900Z,1096.88
2023-05-20T09:16:27.916Z,1113.75
2023-05-20T09:17:27.906Z,1125.00
2023-05-20T09:18:27.936Z,1102.50
2023-05-20T09:19:28.032Z,1108.12
2023-05-20T09:20:27.913Z,1147.50
2023-05-20T09:21:27.899Z,1164.38
2023-05-20T09:22:27.920Z,1130.62
2023-05-20T09:23:28.130Z,1147.50
2023-05-20T09:24:27.839Z,1164.38
2023-05-20T09:25:27.790Z,1158.75
2023-05-20T09:26:27.807Z,1153.12
2023-05-20T09:27:27.758Z,1153.12
2023-05-20T09:28:27.772Z,1170.00
2023-05-20T09:29:27.785Z,1164.38
2023-05-20T09:30:27.738Z,1158.75
2023-05-20T09:31:27.734Z,1158.75
2023-05-20T09:32:27.757Z,1175.62
2023-05-20T09:33:27.704Z,1192.50
2023-05-20T09:34:27.687Z,1203.75
2023-05-20T09:35:27.702Z,1203.75
2023-05-20T09:36:27.689Z,1226.25
2023-05-20T09:37:27.693Z,1237.50
2023-05-20T09:38:27.647Z,1231.88
2023-05-20T09:39:27.638Z,1203.75
2023-05-20T09:40:27.616Z,1175.62
2023-05-20T09:41:27.637Z,1136.25
2023-05-20T09:42:27.623Z,1096.88
2023-05-20T09:43:27.595Z,1080.00
2023-05-20T09:44:27.582Z,1051.88
2023-05-20T09:45:27.577Z,1023.75
2023-05-20T09:46:27.706Z,1051.88
2023-05-20T09:47:27.573Z,1074.38
2023-05-20T09:48:27.535Z,1108.12
2023-05-20T09:49:27.527Z,1141.88
2023-05-20T09:50:27.517Z,1113.75
2023-05-20T09:51:27.502Z,1108.12
2023-05-20T09:52:27.516Z,1136.25
2023-05-20T09:53:27.504Z,1096.88
2023-05-20T09:54:27.473Z,1068.75
2023-05-20T09:55:27.461Z,1018.12
2023-05-20T09:56:27.453Z,1006.88
2023-05-20T09:57:27.460Z,1001.25
2023-05-20T09:58:27.432Z,950.62
2023-05-20T09:59:27.434Z,967.50
2023-05-20T10:00:27.440Z,967.50
2023-05-20T10:01:27.433Z,894.38
2023-05-20T10:02:27.455Z,883.12
2023-05-20T10:03:27.453Z,928.12
2023-05-20T10:04:27.362Z,995.62
2023-05-20T10:05:27.381Z,984.38
2023-05-20T10:06:27.345Z,928.12
2023-05-20T10:07:40.585Z,928.12
2023-05-20T10:08:27.328Z,916.88
2023-05-20T10:09:27.319Z,883.12
2023-05-20T10:10:27.297Z,911.25
2023-05-20T10:11:27.317Z,1006.88
2023-05-20T10:12:27.281Z,1102.50
2023-05-20T10:13:27.310Z,1136.25
2023-05-20T10:14:27.269Z,1158.75
2023-05-20T10:15:27.270Z,1175.62
2023-05-20T10:16:27.282Z,1170.00
2023-05-20T10:17:27.270Z,1170.00
2023-05-20T10:18:27.225Z,1136.25
2023-05-20T10:19:27.359Z,1080.00
2023-05-20T10:20:27.208Z,1147.50
2023-05-20T10:21:27.209Z,1170.00
2023-05-20T10:22:27.185Z,1158.75
2023-05-20T10:23:27.197Z,1029.38
2023-05-20T10:24:27.166Z,939.38
2023-05-20T10:25:27.161Z,1029.38
2023-05-20T10:26:27.132Z,1203.75
2023-05-20T10:27:27.142Z,1248.75
2023-05-20T10:28:27.115Z,1288.12
2023-05-20T10:29:27.107Z,1333.12
2023-05-20T10:30:27.084Z,1248.75
2023-05-20T10:31:27.097Z,1237.50
2023-05-20T10:32:27.170Z,1288.12
2023-05-20T10:33:27.148Z,1811.25
2023-05-20T10:34:27.045Z,2694.38
2023-05-20T10:35:27.049Z,4095.00
2023-05-20T10:36:27.018Z,3015.00
2023-05-20T10:37:27.007Z,3335.62
2023-05-20T10:38:27.027Z,1766.25
2023-05-20T10:39:27.011Z,2705.62
2023-05-20T10:40:26.986Z,4320.00
2023-05-20T10:41:26.967Z,2576.25
2023-05-20T10:42:26.954Z,2925.00
2023-05-20T10:43:26.931Z,1046.25
2023-05-20T10:44:26.952Z,1288.12
2023-05-20T10:46:31.186Z,4781.25
2023-05-20T10:47:25.787Z,1603.12
2023-05-20T10:48:21.071Z,4606.88
2023-05-20T10:49:24.054Z,4786.88
2023-05-20T10:50:20.950Z,1721.25
2023-05-20T10:51:20.938Z,1074.38
2023-05-20T10:52:20.951Z,4426.88
2023-05-20T10:53:32.319Z,4331.25
2023-05-20T10:54:20.922Z,4528.12
2023-05-20T10:55:20.895Z,4590.00
2023-05-20T10:56:20.881Z,4308.75
2023-05-20T10:57:20.875Z,4100.62
2023-05-20T10:58:20.856Z,4359.38
2023-05-20T10:59:20.876Z,4280.62
2023-05-20T11:00:20.833Z,3611.25
2023-05-20T11:01:20.836Z,4297.50
2023-05-20T11:02:20.893Z,4601.25
2023-05-20T11:03:20.874Z,4426.88
2023-05-20T11:04:20.804Z,3965.62
2023-05-20T11:05:20.805Z,4590.00
2023-05-20T11:06:20.782Z,2643.75
2023-05-20T11:07:20.773Z,4275.00
2023-05-20T11:08:29.126Z,4303.12
2023-05-20T11:09:20.789Z,4505.62
2023-05-20T11:10:20.772Z,4398.75
2023-05-20T11:11:20.724Z,4404.38
2023-05-20T11:12:20.715Z,4426.88
2023-05-20T11:13:20.877Z,4455.00
2023-05-20T11:14:20.690Z,4370.62
2023-05-20T11:15:20.706Z,1445.62
2023-05-20T11:16:20.716Z,2795.62
2023-05-20T11:17:20.706Z,4533.75
2023-05-20T11:18:20.681Z,900.00
2023-05-20T11:19:20.694Z,3836.25
2023-05-20T11:20:20.665Z,4044.38
2023-05-20T11:21:20.625Z,2536.88
2023-05-20T11:22:20.621Z,573.75
2023-05-20T11:23:20.602Z,495.00
2023-05-20T11:24:20.592Z,3251.25
2023-05-20T11:25:20.581Z,680.62
2023-05-20T11:26:20.591Z,4376.25
2023-05-20T11:27:20.558Z,4325.62
2023-05-20T11:28:20.546Z,4320.00
2023-05-20T11:29:20.545Z,4320.00
2023-05-20T11:30:20.587Z,4376.25
2023-05-20T11:31:20.523Z,1963.12
2023-05-20T11:32:20.655Z,641.25
2023-05-20T11:33:20.625Z,590.62
2023-05-20T11:34:21.784Z,4528.12
2023-05-20T11:35:20.484Z,4426.88
2023-05-20T11:36:27.915Z,2998.12
2023-05-20T11:37:20.467Z,956.25
2023-05-20T11:38:20.455Z,888.75
2023-05-20T11:39:20.442Z,4466.25
2023-05-20T11:40:20.423Z,4460.62
2023-05-20T11:41:20.455Z,4381.88
2023-05-20T11:42:20.419Z,4061.25
2023-05-20T11:43:20.433Z,4038.75
2023-05-20T11:44:20.381Z,4443.75
2023-05-20T11:45:20.374Z,4415.62
2023-05-20T11:46:20.389Z,4410.00
2023-05-20T11:47:22.529Z,4460.62
2023-05-20T11:48:20.350Z,4066.88
2023-05-20T11:49:20.339Z,871.88
2023-05-20T11:50:20.331Z,675.00
2023-05-20T11:51:20.315Z,4140.00
2023-05-20T11:52:20.328Z,4438.12
2023-05-20T11:53:20.293Z,4359.38
2023-05-20T11:54:20.287Z,4100.62
2023-05-20T11:55:20.276Z,4213.12
2023-05-20T11:56:20.264Z,4106.25
2023-05-20T11:57:20.274Z,4218.75
2023-05-20T11:58:20.248Z,714.38
2023-05-20T11:59:20.237Z,686.25
2023-05-20T12:00:20.238Z,433.12
2023-05-20T12:01:22.855Z,405.00
2023-05-20T12:02:20.212Z,416.25
2023-05-20T12:03:20.346Z,455.62
2023-05-20T12:04:20.329Z,545.62
2023-05-20T12:05:20.198Z,652.50
2023-05-20T12:06:20.158Z,579.38
2023-05-20T12:07:20.150Z,517.50
2023-05-20T12:08:20.138Z,495.00
2023-05-20T12:09:20.152Z,450.00
2023-05-20T12:10:20.137Z,466.88
2023-05-20T12:11:20.112Z,483.75
2023-05-20T12:12:20.097Z,438.75
2023-05-20T12:13:20.092Z,382.50
2023-05-20T12:14:20.085Z,371.25
2023-05-20T12:15:20.089Z,343.12
2023-05-20T12:16:20.108Z,343.12
2023-05-20T12:17:20.044Z,371.25
2023-05-20T12:18:20.050Z,388.12
2023-05-20T12:19:20.069Z,399.38
2023-05-20T12:20:20.034Z,360.00
2023-05-20T12:21:20.006Z,331.88
2023-05-20T12:22:19.993Z,326.25
2023-05-20T12:23:19.981Z,292.50
2023-05-20T12:24:19.971Z,298.12
2023-05-20T12:25:19.962Z,303.75
2023-05-20T12:26:19.968Z,354.38
2023-05-20T12:27:19.943Z,371.25
2023-05-20T12:28:19.926Z,410.62
2023-05-20T12:29:19.935Z,455.62
2023-05-20T12:30:19.899Z,528.75
2023-05-20T12:31:19.916Z,607.50
2023-05-20T12:32:19.950Z,753.75
2023-05-20T12:33:19.867Z,652.50
2023-05-20T12:34:19.854Z,579.38
2023-05-20T12:35:19.903Z,562.50
2023-05-20T12:36:19.940Z,551.25
2023-05-20T12:37:19.843Z,495.00
2023-05-20T12:38:19.806Z,506.25
2023-05-20T12:39:19.806Z,495.00